Time;durP1;ratioP1;P1;durP2;ratioP2;P2;SDS_P1;SDS_P2;PMS_P1;PMS_P2;Temp;Humidity;BMP_temperature;BMP_pressure;BME280_temperature;BME280_humidity;BME280_pressure;Samples;Min_cycle;Max_cycle;Signal;HPM_P1;HPM_P2
2024/04/16 00:00:38;;;;;;;7.97;3.13;;;4.90;100.00;;;;;;5274014;27;20577;-73
2024/04/16 00:03:06;;;;;;;5.50;3.08;;;4.90;100.00;;;;;;5236129;27;20852;-74
2024/04/16 00:05:34;;;;;;;8.05;3.72;;;4.90;100.00;;;;;;5264397;27;20019;-73
2024/04/16 00:08:00;;;;;;;12.75;3.67;;;5.00;100.00;;;;;;5250369;27;19999;-74
2024/04/16 00:10:28;;;;;;;10.10;3.85;;;5.00;100.00;;;;;;5232488;27;20021;-73
2024/04/16 00:12:55;;;;;;;9.32;3.65;;;5.00;100.00;;;;;;5247492;27;20018;-73
2024/04/16 00:15:22;;;;;;;10.13;3.80;;;5.10;100.00;;;;;;5230038;27;20882;-73
2024/04/16 00:17:48;;;;;;;8.45;3.50;;;5.00;100.00;;;;;;5256109;27;20017;-73
2024/04/16 00:20:16;;;;;;;7.88;3.95;;;5.00;100.00;;;;;;5258550;27;19999;-73
2024/04/16 00:22:43;;;;;;;10.82;4.28;;;5.10;100.00;;;;;;5234150;27;20733;-73
2024/04/16 00:25:11;;;;;;;7.18;4.07;;;5.10;100.00;;;;;;5255528;27;20015;-73
2024/04/16 00:27:38;;;;;;;8.07;4.15;;;5.10;100.00;;;;;;5250190;27;20012;-73
2024/04/16 00:30:05;;;;;;;10.00;4.28;;;5.10;100.00;;;;;;5258812;27;20018;-73
2024/04/16 00:32:32;;;;;;;11.90;4.90;;;5.10;100.00;;;;;;5261643;27;20010;-73
2024/04/16 00:34:59;;;;;;;12.60;4.10;;;5.10;100.00;;;;;;5237955;27;20006;-73
2024/04/16 00:37:26;;;;;;;21.73;5.13;;;5.10;100.00;;;;;;5249935;27;20002;-73
2024/04/16 00:39:53;;;;;;;12.82;4.30;;;5.10;100.00;;;;;;5261310;27;20601;-74
2024/04/16 00:42:20;;;;;;;15.07;5.32;;;5.10;100.00;;;;;;5259494;27;20328;-73
2024/04/16 00:44:47;;;;;;;14.05;4.95;;;5.10;100.00;;;;;;5263088;27;20739;-74
2024/04/16 00:47:16;;;;;;;13.25;4.93;;;5.10;100.00;;;;;;5234627;27;20018;-73
2024/04/16 00:49:44;;;;;;;12.48;4.72;;;5.10;100.00;;;;;;5217003;27;20027;-73
2024/04/16 00:52:12;;;;;;;12.52;4.15;;;5.10;100.00;;;;;;5224160;27;20030;-73
2024/04/16 00:54:40;;;;;;;12.15;4.50;;;5.10;100.00;;;;;;5254305;27;20212;-73
2024/04/16 00:57:07;;;;;;;8.65;4.10;;;5.10;100.00;;;;;;5264471;27;20021;-73
2024/04/16 00:59:36;;;;;;;10.27;3.95;;;5.10;100.00;;;;;;5265090;27;19998;-73
2024/04/16 01:02:03;;;;;;;14.30;4.28;;;5.10;100.00;;;;;;5227147;27;20143;-73
2024/04/16 01:04:30;;;;;;;8.50;3.42;;;5.10;100.00;;;;;;5255199;27;20003;-73
2024/04/16 01:06:57;;;;;;;7.18;3.40;;;5.00;100.00;;;;;;5260196;27;20057;-73
2024/04/16 01:09:24;;;;;;;7.93;2.50;;;5.00;100.00;;;;;;5253199;27;20017;-73
2024/04/16 01:11:57;;;;;;;6.60;3.38;;;5.00;100.00;;;;;;5255459;27;20002;-74
2024/04/16 01:14:23;;;;;;;9.18;3.28;;;5.00;100.00;;;;;;5264428;27;20018;-74
2024/04/16 01:16:50;;;;;;;11.00;3.28;;;5.00;100.00;;;;;;5268603;27;20016;-73
2024/04/16 01:19:17;;;;;;;10.85;3.08;;;5.00;100.00;;;;;;5250546;27;20014;-74
2024/04/16 01:21:44;;;;;;;12.43;3.42;;;4.90;100.00;;;;;;5264168;27;20013;-74
2024/04/16 01:24:11;;;;;;;6.35;2.65;;;5.00;100.00;;;;;;5235098;27;20017;-74
2024/04/16 01:26:38;;;;;;;6.78;3.35;;;4.90;100.00;;;;;;5216020;27;20082;-73
2024/04/16 01:29:05;;;;;;;11.45;3.67;;;5.00;100.00;;;;;;5260062;27;20014;-73
2024/04/16 01:31:33;;;;;;;13.85;4.05;;;4.90;100.00;;;;;;5258010;27;20017;-74
2024/04/16 01:34:00;;;;;;;15.00;3.72;;;4.90;100.00;;;;;;5252897;27;20018;-74
2024/04/16 01:36:27;;;;;;;13.85;3.50;;;4.90;100.00;;;;;;5264034;27;20058;-74
2024/04/16 01:38:54;;;;;;;17.42;4.28;;;5.00;100.00;;;;;;5265258;27;20003;-74
2024/04/16 01:41:20;;;;;;;9.18;3.28;;;4.90;100.00;;;;;;5253031;27;19998;-73
2024/04/16 01:43:47;;;;;;;9.15;3.60;;;4.90;100.00;;;;;;5230867;27;20014;-74
2024/04/16 01:46:14;;;;;;;13.00;3.58;;;4.90;100.00;;;;;;5256632;27;20021;-73
2024/04/16 01:48:41;;;;;;;13.45;3.53;;;4.90;100.00;;;;;;5245652;27;20003;-74
2024/04/16 01:51:08;;;;;;;10.73;3.60;;;4.90;100.00;;;;;;5259796;27;20573;-74
2024/04/16 01:53:35;;;;;;;13.50;3.10;;;4.90;100.00;;;;;;5260686;27;20462;-74
2024/04/16 01:56:04;;;;;;;9.60;3.22;;;4.90;100.00;;;;;;5257279;27;20113;-74
2024/04/16 01:58:31;;;;;;;10.63;3.42;;;4.90;100.00;;;;;;5251505;27;19998;-74
2024/04/16 02:01:01;;;;;;;10.15;3.13;;;4.90;100.00;;;;;;5247931;27;20900;-74
2024/04/16 02:03:29;;;;;;;9.88;3.90;;;4.90;100.00;;;;;;5254216;27;20007;-74
2024/04/16 02:05:57;;;;;;;9.95;3.60;;;4.90;100.00;;;;;;5225990;27;20074;-74
2024/04/16 02:08:25;;;;;;;12.75;3.80;;;4.90;100.00;;;;;;5262006;27;20006;-74
2024/04/16 02:10:57;;;;;;;7.68;3.15;;;4.90;100.00;;;;;;5259022;27;20800;-74
2024/04/16 02:13:25;;;;;;;16.08;3.97;;;4.90;100.00;;;;;;5257369;27;20010;-74
2024/04/16 02:15:52;;;;;;;7.70;3.20;;;4.90;100.00;;;;;;5232142;27;20027;-74
2024/04/16 02:18:19;;;;;;;13.93;4.00;;;4.90;100.00;;;;;;5251974;27;20011;-74
2024/04/16 02:20:46;;;;;;;7.60;3.33;;;5.00;100.00;;;;;;5227864;27;20006;-74
2024/04/16 02:23:14;;;;;;;13.60;3.63;;;5.00;100.00;;;;;;5258920;27;20096;-74
2024/04/16 02:25:49;;;;;;;11.05;3.10;;;5.00;100.00;;;;;;5258257;27;20010;-75
2024/04/16 02:28:16;;;;;;;14.25;3.10;;;5.00;100.00;;;;;;5250574;27;20446;-74
2024/04/16 02:30:43;;;;;;;14.65;3.47;;;5.00;100.00;;;;;;5230095;27;20006;-74
2024/04/16 02:33:13;;;;;;;16.02;3.10;;;5.00;100.00;;;;;;5227703;27;20113;-74
2024/04/16 02:35:39;;;;;;;9.57;2.55;;;5.00;100.00;;;;;;5229477;27;20026;-75
2024/04/16 02:38:06;;;;;;;12.68;2.97;;;5.00;100.00;;;;;;5258843;27;20011;-74
2024/04/16 02:40:34;;;;;;;13.27;3.92;;;5.00;100.00;;;;;;5251227;27;20089;-74
2024/04/16 02:43:01;;;;;;;7.93;3.30;;;5.00;100.00;;;;;;5256855;27;20030;-75
2024/04/16 02:45:28;;;;;;;8.20;2.75;;;5.00;100.00;;;;;;5262364;27;20045;-74
2024/04/16 02:47:55;;;;;;;10.50;2.30;;;4.90;100.00;;;;;;5262482;27;20029;-75
2024/04/16 02:50:22;;;;;;;9.75;3.30;;;4.90;100.00;;;;;;5252835;27;20010;-74
2024/04/16 02:52:49;;;;;;;7.22;2.53;;;4.90;100.00;;;;;;5258298;27;20002;-74
2024/04/16 02:55:20;;;;;;;7.28;2.47;;;4.90;100.00;;;;;;5258322;27;20009;-74
2024/04/16 02:57:47;;;;;;;11.75;3.10;;;4.90;100.00;;;;;;5259692;27;20049;-74
2024/04/16 03:00:14;;;;;;;11.05;3.15;;;4.90;100.00;;;;;;5261523;27;20002;-74
2024/04/16 03:02:41;;;;;;;8.15;2.35;;;4.90;100.00;;;;;;5262935;27;19998;-74
2024/04/16 03:05:08;;;;;;;8.85;3.00;;;4.90;100.00;;;;;;5264570;27;20003;-74
2024/04/16 03:07:36;;;;;;;7.78;2.63;;;4.90;100.00;;;;;;5249800;27;20134;-75
2024/04/16 03:10:04;;;;;;;10.00;2.83;;;4.90;100.00;;;;;;5262518;27;20105;-74
2024/04/16 03:12:31;;;;;;;8.02;2.65;;;4.90;100.00;;;;;;5258801;27;20023;-74
2024/04/16 03:14:58;;;;;;;8.85;2.50;;;4.90;100.00;;;;;;5255987;27;20446;-74
2024/04/16 03:17:25;;;;;;;4.45;2.40;;;4.90;100.00;;;;;;5251716;27;20006;-74
2024/04/16 03:19:52;;;;;;;9.10;2.35;;;4.90;100.00;;;;;;5257856;27;20017;-74
2024/04/16 03:22:19;;;;;;;11.18;2.50;;;4.90;100.00;;;;;;5259654;27;20542;-74
2024/04/16 03:24:50;;;;;;;10.80;2.97;;;4.90;100.00;;;;;;5258607;27;20011;-74
2024/04/16 03:27:17;;;;;;;8.88;2.80;;;4.90;100.00;;;;;;5238069;27;20010;-74
2024/04/16 03:29:44;;;;;;;6.07;2.70;;;4.90;100.00;;;;;;5228175;27;20706;-73
2024/04/16 03:32:11;;;;;;;9.93;3.42;;;4.90;100.00;;;;;;5254522;27;20101;-73
2024/04/16 03:34:38;;;;;;;12.68;3.25;;;4.90;100.00;;;;;;5244223;27;20014;-73
2024/04/16 03:37:05;;;;;;;8.63;2.50;;;4.90;100.00;;;;;;5247808;27;20007;-73
2024/04/16 03:39:32;;;;;;;9.95;3.15;;;4.80;100.00;;;;;;5255270;27;20014;-74
2024/04/16 03:41:59;;;;;;;6.78;2.53;;;4.80;100.00;;;;;;5258775;27;20022;-74
2024/04/16 03:44:26;;;;;;;12.57;2.80;;;4.80;100.00;;;;;;5268913;27;20050;-73
2024/04/16 03:46:53;;;;;;;10.30;2.40;;;4.80;100.00;;;;;;5263964;27;20006;-74
2024/04/16 03:49:19;;;;;;;13.05;2.25;;;4.80;100.00;;;;;;5263887;27;20002;-74
2024/04/16 03:51:46;;;;;;;4.55;2.00;;;4.80;100.00;;;;;;5230403;27;20006;-74
2024/04/16 03:54:13;;;;;;;6.60;2.30;;;4.80;100.00;;;;;;5254417;27;20391;-74
2024/04/16 03:56:42;;;;;;;5.03;2.47;;;4.70;100.00;;;;;;5257124;27;20062;-74
2024/04/16 04:02:20;;;;;;;6.00;2.30;;;4.70;100.00;;;;;;5252883;27;20017;-68
2024/04/16 04:04:47;;;;;;;4.90;2.03;;;4.80;100.00;;;;;;5256697;27;20044;-67
2024/04/16 04:07:13;;;;;;;4.40;2.25;;;4.80;100.00;;;;;;5260416;27;20007;-68
2024/04/16 04:09:40;;;;;;;5.05;1.92;;;4.70;100.00;;;;;;5261458;27;20044;-68
2024/04/16 04:12:07;;;;;;;7.30;1.98;;;4.80;100.00;;;;;;5261935;26;20006;-68
2024/04/16 04:14:34;;;;;;;4.82;2.30;;;4.80;100.00;;;;;;5264157;27;20022;-68
2024/04/16 04:17:01;;;;;;;3.35;2.00;;;4.80;100.00;;;;;;5261765;27;20009;-68
2024/04/16 04:19:28;;;;;;;4.85;2.08;;;4.80;100.00;;;;;;5266483;27;20026;-68
2024/04/16 04:21:55;;;;;;;6.07;2.47;;;4.80;100.00;;;;;;5272830;27;20013;-68
2024/04/16 04:24:22;;;;;;;9.52;2.40;;;4.80;100.00;;;;;;5263952;27;20741;-67
2024/04/16 04:27:01;;;;;;;6.47;2.00;;;4.80;100.00;;;;;;5260059;27;20006;-68
2024/04/16 04:29:29;;;;;;;6.07;2.30;;;4.80;100.00;;;;;;5262924;22;20474;-73
2024/04/16 04:31:57;;;;;;;5.25;2.40;;;4.90;100.00;;;;;;5325613;26;19997;-75
2024/04/16 04:34:25;;;;;;;6.60;2.17;;;4.90;100.00;;;;;;5356786;26;20015;-75
2024/04/16 04:36:52;;;;;;;6.38;2.03;;;4.90;100.00;;;;;;5364394;26;20147;-73
2024/04/16 04:39:19;;;;;;;5.75;2.08;;;5.00;100.00;;;;;;5347808;26;20000;-74
2024/04/16 04:41:46;;;;;;;11.50;2.17;;;5.00;100.00;;;;;;5356690;26;20012;-73
2024/04/16 04:44:13;;;;;;;7.85;2.47;;;5.00;100.00;;;;;;5362804;26;20000;-74
2024/04/16 04:46:40;;;;;;;3.58;1.73;;;5.00;100.00;;;;;;5354704;26;20080;-73
2024/04/16 04:49:07;;;;;;;8.63;2.67;;;5.00;100.00;;;;;;5361870;26;20016;-71
2024/04/16 04:51:34;;;;;;;13.18;2.38;;;5.00;100.00;;;;;;5351127;26;20542;-71
2024/04/16 04:56:49;;;;;;;15.30;2.80;;;5.10;100.00;;;;;;5254801;27;20033;-68
2024/04/16 04:59:16;;;;;;;9.95;2.55;;;5.10;100.00;;;;;;5262738;27;20010;-72
2024/04/16 05:01:43;;;;;;;7.65;2.60;;;5.10;100.00;;;;;;5266416;27;20021;-69
2024/04/16 05:04:10;;;;;;;4.32;2.10;;;5.10;100.00;;;;;;5264958;27;20010;-69
2024/04/16 05:06:38;;;;;;;6.68;2.60;;;5.20;100.00;;;;;;5264154;27;20022;-68
2024/04/16 05:09:05;;;;;;;8.05;2.67;;;5.20;100.00;;;;;;5262457;27;20021;-69
2024/04/16 05:11:33;;;;;;;11.38;2.55;;;5.20;100.00;;;;;;5261399;27;20018;-72
2024/04/16 05:14:00;;;;;;;9.35;2.90;;;5.20;100.00;;;;;;5260489;27;20081;-70
2024/04/16 05:16:27;;;;;;;9.95;2.85;;;5.20;100.00;;;;;;5262580;27;20045;-70
2024/04/16 05:18:54;;;;;;;12.80;2.50;;;5.20;100.00;;;;;;5259381;27;20903;-71
2024/04/16 05:21:21;;;;;;;7.22;2.35;;;5.30;100.00;;;;;;5264492;27;20453;-69
2024/04/16 05:23:48;;;;;;;4.22;2.45;;;5.30;100.00;;;;;;5252216;27;20010;-69
2024/04/16 05:26:16;;;;;;;7.05;2.47;;;5.30;100.00;;;;;;5256150;27;20006;-71
2024/04/16 05:28:43;;;;;;;13.70;2.35;;;5.30;100.00;;;;;;5262905;27;20731;-72
2024/04/16 05:31:10;;;;;;;8.00;2.75;;;5.40;100.00;;;;;;5261283;27;20017;-71
2024/04/16 05:33:37;;;;;;;7.47;2.53;;;5.30;100.00;;;;;;5257437;27;20080;-68
2024/04/16 05:36:04;;;;;;;6.40;2.03;;;5.40;100.00;;;;;;5233444;27;20003;-68
2024/04/16 05:38:33;;;;;;;5.80;2.28;;;5.40;100.00;;;;;;5255215;27;20088;-68
2024/04/16 05:41:02;;;;;;;11.90;2.40;;;5.40;100.00;;;;;;5261214;27;20006;-68
2024/04/16 05:43:29;;;;;;;9.70;2.63;;;5.40;100.00;;;;;;5250544;27;20567;-68
2024/04/16 05:45:56;;;;;;;7.40;2.40;;;5.50;100.00;;;;;;5258417;27;20022;-68
2024/04/16 05:48:23;;;;;;;6.78;2.33;;;5.50;100.00;;;;;;5250899;27;20006;-69
2024/04/16 05:50:50;;;;;;;5.70;2.50;;;5.60;100.00;;;;;;5230462;27;20018;-68
2024/04/16 05:53:17;;;;;;;10.50;2.17;;;5.70;100.00;;;;;;5263657;27;20065;-68
2024/04/16 05:55:44;;;;;;;4.25;2.35;;;5.70;100.00;;;;;;5265938;27;20005;-68
2024/04/16 05:58:11;;;;;;;6.88;2.28;;;5.70;100.00;;;;;;5255014;27;20013;-75
2024/04/16 06:00:38;;;;;;;6.45;2.50;;;5.70;100.00;;;;;;5260418;27;20014;-75
2024/04/16 06:03:06;;;;;;;9.27;2.97;;;5.80;100.00;;;;;;5256802;27;20006;-74
2024/04/16 06:05:34;;;;;;;8.55;2.92;;;5.80;100.00;;;;;;5247925;27;20002;-74
2024/04/16 06:08:01;;;;;;;7.38;3.00;;;5.80;100.00;;;;;;5259282;27;20425;-75
2024/04/16 06:10:28;;;;;;;5.78;2.38;;;5.80;100.00;;;;;;5263204;27;20009;-75
2024/04/16 06:12:55;;;;;;;5.07;2.45;;;5.80;100.00;;;;;;5231114;27;20002;-75
2024/04/16 06:15:22;;;;;;;5.22;2.40;;;5.90;100.00;;;;;;5260151;27;20007;-73
2024/04/16 06:17:49;;;;;;;10.60;2.58;;;5.90;100.00;;;;;;5251227;27;20018;-71
2024/04/16 06:20:16;;;;;;;4.50;2.28;;;5.90;100.00;;;;;;5248340;27;20010;-74
2024/04/16 06:22:46;;;;;;;9.60;3.00;;;5.90;100.00;;;;;;5259124;27;20013;-75
2024/04/16 06:25:13;;;;;;;8.80;1.95;;;6.00;100.00;;;;;;5261074;27;20017;-75
2024/04/16 06:27:40;;;;;;;7.32;2.80;;;6.00;100.00;;;;;;5261937;27;20006;-70
2024/04/16 06:30:07;;;;;;;4.38;2.00;;;6.10;100.00;;;;;;5260359;27;20018;-70
2024/04/16 06:32:34;;;;;;;4.50;2.20;;;6.10;100.00;;;;;;5264496;27;20312;-71
2024/04/16 06:35:01;;;;;;;9.98;2.50;;;6.10;100.00;;;;;;5252535;27;20003;-70
2024/04/16 06:37:28;;;;;;;9.68;3.05;;;6.20;100.00;;;;;;5262193;27;20003;-70
2024/04/16 06:39:55;;;;;;;14.00;2.88;;;6.20;100.00;;;;;;5263493;27;20376;-70
2024/04/16 06:42:22;;;;;;;5.82;2.58;;;6.20;100.00;;;;;;5264420;27;19998;-70
2024/04/16 06:44:49;;;;;;;10.02;2.33;;;6.30;100.00;;;;;;5257951;27;20003;-70
2024/04/16 06:47:16;;;;;;;6.53;2.58;;;6.30;100.00;;;;;;5263537;27;20755;-70
2024/04/16 06:49:44;;;;;;;6.88;2.38;;;6.20;100.00;;;;;;5263994;27;20006;-70
2024/04/16 06:52:11;;;;;;;4.70;2.28;;;6.30;100.00;;;;;;5258233;27;20010;-70
2024/04/16 06:54:38;;;;;;;8.57;2.55;;;6.40;100.00;;;;;;5253472;27;20586;-70
2024/04/16 06:57:05;;;;;;;6.22;2.97;;;6.50;100.00;;;;;;5271423;27;20089;-70
2024/04/16 06:59:32;;;;;;;7.68;3.17;;;6.60;100.00;;;;;;5263369;27;20003;-70
2024/04/16 07:01:59;;;;;;;8.55;3.13;;;6.60;100.00;;;;;;5256212;27;20002;-70
2024/04/16 07:04:26;;;;;;;8.60;2.47;;;6.60;100.00;;;;;;5262050;27;20431;-71
2024/04/16 07:06:54;;;;;;;5.47;2.58;;;6.70;100.00;;;;;;5247327;27;20644;-71
2024/04/16 07:09:24;;;;;;;10.32;2.90;;;6.70;100.00;;;;;;5266318;27;20002;-70
2024/04/16 07:11:51;;;;;;;17.13;3.20;;;6.70;100.00;;;;;;5212812;27;20053;-70
2024/04/16 07:14:19;;;;;;;23.30;2.53;;;6.70;100.00;;;;;;5251521;27;20329;-70
2024/04/16 07:16:45;;;;;;;7.70;2.47;;;6.70;100.00;;;;;;5263653;27;20006;-70
2024/04/16 07:19:12;;;;;;;8.65;2.63;;;6.70;100.00;;;;;;5219879;27;20014;-69
2024/04/16 07:21:39;;;;;;;12.55;2.83;;;6.70;100.00;;;;;;5233892;27;20002;-70
2024/04/16 07:24:06;;;;;;;4.45;2.40;;;6.80;100.00;;;;;;5267138;27;21042;-71
2024/04/16 07:26:33;;;;;;;7.78;2.90;;;6.90;100.00;;;;;;5267591;27;20013;-71
2024/04/16 07:29:00;;;;;;;4.32;2.13;;;7.00;100.00;;;;;;5266625;27;20021;-70
2024/04/16 07:31:27;;;;;;;6.18;2.67;;;7.10;100.00;;;;;;5254065;27;20003;-71
2024/04/16 07:34:07;;;;;;;7.38;2.35;;;7.20;100.00;;;;;;5259162;27;20549;-71
2024/04/16 07:36:34;;;;;;;4.53;2.55;;;7.30;100.00;;;;;;5257403;27;20515;-71
2024/04/16 07:39:01;;;;;;;9.52;4.13;;;7.30;100.00;;;;;;5255220;27;20002;-70
2024/04/16 07:41:29;;;;;;;4.63;2.30;;;7.40;100.00;;;;;;5261416;27;20007;-71
2024/04/16 07:43:56;;;;;;;4.93;2.15;;;7.30;100.00;;;;;;5264168;27;20017;-71
2024/04/16 07:46:23;;;;;;;7.47;3.00;;;7.30;100.00;;;;;;5232623;27;20021;-71
2024/04/16 07:48:50;;;;;;;8.88;2.38;;;7.30;100.00;;;;;;5266422;27;20017;-71
2024/04/16 07:51:19;;;;;;;8.95;2.72;;;7.30;100.00;;;;;;5256365;27;20899;-72
2024/04/16 07:53:45;;;;;;;6.28;2.70;;;7.40;100.00;;;;;;5266170;27;20006;-71
2024/04/16 07:56:12;;;;;;;14.90;3.38;;;7.30;100.00;;;;;;5270969;27;20006;-71
2024/04/16 07:58:44;;;;;;;8.88;3.15;;;7.40;100.00;;;;;;5256625;27;20003;-72
2024/04/16 08:01:12;;;;;;;8.23;3.38;;;7.40;100.00;;;;;;5263260;27;20003;-72
2024/04/16 08:03:39;;;;;;;53.17;8.75;;;7.30;100.00;;;;;;5262482;27;20006;-71
2024/04/16 08:06:06;;;;;;;7.50;3.28;;;7.30;100.00;;;;;;5248820;27;20002;-71
2024/04/16 08:08:33;;;;;;;38.67;4.72;;;7.30;100.00;;;;;;5265221;27;20569;-72
2024/04/16 08:11:13;;;;;;;20.67;3.70;;;7.20;100.00;;;;;;5262089;27;20025;-71
2024/04/16 08:13:40;;;;;;;5.80;2.28;;;7.20;100.00;;;;;;5265307;27;20720;-71
2024/04/16 08:16:09;;;;;;;14.32;3.33;;;7.10;100.00;;;;;;5273895;27;20006;-73
2024/04/16 08:18:36;;;;;;;14.20;3.67;;;7.10;100.00;;;;;;5227111;27;20625;-70
2024/04/16 08:21:04;;;;;;;11.43;3.13;;;7.20;100.00;;;;;;5264109;27;20029;-70
2024/04/16 08:23:31;;;;;;;10.57;3.03;;;7.30;100.00;;;;;;5279692;27;19998;-70
2024/04/16 08:25:59;;;;;;;9.40;3.55;;;7.20;100.00;;;;;;5264388;27;20014;-70
2024/04/16 08:28:32;;;;;;;7.03;3.08;;;7.40;100.00;;;;;;5256920;27;20010;-71
2024/04/16 08:31:01;;;;;;;6.32;2.97;;;7.50;100.00;;;;;;5230580;27;20003;-71
2024/04/16 08:33:28;;;;;;;5.57;2.95;;;7.50;100.00;;;;;;5260538;27;20620;-70
2024/04/16 13:51:41;;;;;;;6.20;2.53;;;6.90;100.00;;;;;;5494448;25;20323;-72
2024/04/16 13:54:08;;;;;;;7.45;2.47;;;7.10;100.00;;;;;;5457863;26;20002;-72
2024/04/16 13:56:35;;;;;;;11.98;2.90;;;7.30;100.00;;;;;;5426900;26;20447;-72
2024/04/16 13:59:02;;;;;;;6.32;2.40;;;7.60;100.00;;;;;;5457632;26;20440;-72
2024/04/16 14:01:29;;;;;;;4.25;1.90;;;7.70;100.00;;;;;;5457358;26;20338;-72
2024/04/16 14:03:56;;;;;;;7.15;2.25;;;7.70;100.00;;;;;;5458651;26;20068;-71
2024/04/16 14:06:23;;;;;;;12.60;2.47;;;7.70;100.00;;;;;;5426783;26;20007;-72
2024/04/16 14:08:50;;;;;;;5.45;2.40;;;7.70;100.00;;;;;;5458387;26;20397;-72
2024/04/16 14:11:17;;;;;;;13.75;2.25;;;7.80;100.00;;;;;;5451434;26;20017;-72
2024/04/16 14:13:44;;;;;;;3.05;1.70;;;7.80;100.00;;;;;;5426509;26;20034;-72
2024/04/16 14:16:11;;;;;;;48.45;6.57;;;7.70;100.00;;;;;;5457459;26;20032;-72
2024/04/16 14:18:47;;;;;;;7.57;2.72;;;7.70;100.00;;;;;;5458102;26;20006;-74
2024/04/16 14:21:14;;;;;;;6.55;2.17;;;7.80;100.00;;;;;;5457108;26;20567;-74
2024/04/16 14:23:41;;;;;;;6.35;2.58;;;7.80;100.00;;;;;;5457388;26;20021;-72
2024/04/16 14:26:08;;;;;;;6.10;2.17;;;7.90;100.00;;;;;;5457314;26;20021;-75
2024/04/16 14:28:35;;;;;;;3.92;2.10;;;7.80;100.00;;;;;;5457649;26;20003;-75
2024/04/16 14:31:02;;;;;;;8.63;2.45;;;7.70;100.00;;;;;;5425158;26;20052;-75
2024/04/16 14:33:28;;;;;;;6.25;2.55;;;7.60;100.00;;;;;;5457465;26;20018;-74
2024/04/16 14:35:59;;;;;;;105.30;13.43;;;7.80;100.00;;;;;;5456886;26;20014;-75
2024/04/16 14:38:26;;;;;;;5.18;2.13;;;8.00;100.00;;;;;;5443971;26;20017;-75
2024/04/16 14:40:53;;;;;;;2.67;1.55;;;7.90;100.00;;;;;;5457517;26;19998;-75
2024/04/16 14:43:20;;;;;;;5.05;1.80;;;7.80;100.00;;;;;;5457674;26;20015;-76
2024/04/16 14:45:47;;;;;;;5.38;1.77;;;7.80;100.00;;;;;;5457453;26;20043;-72
2024/04/16 14:48:14;;;;;;;7.25;1.80;;;7.80;100.00;;;;;;5457191;26;20083;-73
2024/04/16 14:50:42;;;;;;;3.38;1.40;;;7.80;100.00;;;;;;5456428;26;19998;-73
2024/04/16 14:53:12;;;;;;;7.18;1.88;;;8.40;100.00;;;;;;5455500;26;20003;-73
2024/04/16 14:55:43;;;;;;;4.43;1.98;;;9.60;100.00;;;;;;5457093;26;20676;-71
2024/04/16 14:58:10;;;;;;;2.33;1.33;;;10.70;100.00;;;;;;5457273;26;19999;-71
2024/04/16 15:00:40;;;;;;;3.70;1.20;;;11.60;100.00;;;;;;5459924;26;20919;-71
2024/04/16 15:03:08;;;;;;;5.13;1.23;;;11.80;100.00;;;;;;5408490;26;19995;-70
2024/04/16 15:05:38;;;;;;;4.72;0.90;;;12.30;100.00;;;;;;5409183;26;20019;-70
2024/04/16 15:08:06;;;;;;;1.63;0.73;;;11.60;100.00;;;;;;5442218;26;20006;-70
2024/04/16 15:10:33;;;;;;;1.50;0.65;;;10.90;100.00;;;;;;5441320;26;20018;-69
2024/04/16 15:13:05;;;;;;;2.47;1.20;;;9.90;100.00;;;;;;5409552;26;20551;-70
2024/04/16 15:15:35;;;;;;;1.77;0.90;;;9.60;100.00;;;;;;5440194;26;20003;-72
2024/04/16 15:18:03;;;;;;;2.80;0.75;;;9.60;100.00;;;;;;5409726;26;19995;-72
2024/04/16 15:20:29;;;;;;;1.88;0.80;;;9.80;100.00;;;;;;5441019;26;20014;-73
2024/04/16 15:22:57;;;;;;;1.38;1.00;;;11.00;100.00;;;;;;5441190;26;20725;-72
2024/04/16 15:25:24;;;;;;;2.95;0.68;;;12.20;100.00;;;;;;5440863;26;19999;-70
2024/04/16 15:27:51;;;;;;;1.73;0.60;;;13.00;100.00;;;;;;5441475;26;19995;-70
2024/04/16 15:30:18;;;;;;;0.98;0.50;;;13.40;100.00;;;;;;5435929;26;20053;-70
2024/04/16 15:32:45;;;;;;;4.03;0.82;;;13.30;100.00;;;;;;5408706;26;20044;-70
2024/04/16 15:35:15;;;;;;;3.15;0.65;;;13.90;100.00;;;;;;5436673;26;19999;-71
2024/04/16 15:37:42;;;;;;;1.00;0.63;;;14.80;100.00;;;;;;5439788;26;20007;-71
2024/04/16 15:40:09;;;;;;;1.02;0.47;;;15.50;100.00;;;;;;5438320;26;20119;-71
2024/04/16 15:42:49;;;;;;;1.65;0.63;;;15.20;100.00;;;;;;5430483;26;20037;-71
2024/04/16 15:51:24;;;;;;;2.25;0.93;;;14.90;100.00;;;;;;5473839;25;20358;-71
2024/04/16 15:53:51;;;;;;;3.70;0.90;;;15.00;100.00;;;;;;5412954;26;19995;-70
2024/04/16 15:56:18;;;;;;;2.65;1.00;;;14.90;100.00;;;;;;5446104;26;20014;-70
2024/04/16 15:58:45;;;;;;;4.32;0.80;;;14.50;100.00;;;;;;5452832;26;20017;-71
2024/04/16 16:01:12;;;;;;;1.88;0.90;;;14.70;100.00;;;;;;5448282;26;19998;-71
2024/04/16 16:03:40;;;;;;;2.47;0.80;;;15.40;100.00;;;;;;5452525;26;20051;-72
2024/04/16 16:06:08;;;;;;;3.97;1.35;;;15.60;100.00;;;;;;5456267;26;20034;-72
2024/04/16 16:08:36;;;;;;;2.42;1.27;;;15.80;100.00;;;;;;5417840;26;19998;-71
2024/04/16 16:11:03;;;;;;;2.78;1.13;;;15.60;100.00;;;;;;5422180;26;19998;-71
2024/04/16 16:13:31;;;;;;;1.60;0.90;;;15.90;100.00;;;;;;5424220;26;20014;-72
2024/04/16 16:15:58;;;;;;;6.18;1.00;;;16.20;100.00;;;;;;5441614;26;20003;-71
2024/04/16 16:18:24;;;;;;;3.35;1.02;;;15.90;100.00;;;;;;5454448;26;19998;-73
2024/04/16 16:20:52;;;;;;;2.75;1.17;;;15.50;100.00;;;;;;5449715;26;20096;-72
2024/04/16 16:23:19;;;;;;;120.13;13.25;;;14.60;100.00;;;;;;5447777;26;20025;-71
2024/04/16 16:25:47;;;;;;;300.98;34.05;;;14.70;100.00;;;;;;5455477;26;20449;-72
2024/04/16 16:28:14;;;;;;;21.13;3.78;;;15.60;100.00;;;;;;5456166;26;19995;-73
2024/04/16 16:30:42;;;;;;;37.35;4.13;;;15.90;100.00;;;;;;5425312;26;20006;-75
2024/04/16 16:33:09;;;;;;;5.38;1.20;;;16.40;100.00;;;;;;5457014;26;20009;-74
2024/04/16 16:35:36;;;;;;;2.17;0.80;;;16.30;100.00;;;;;;5455814;26;20459;-75
2024/04/16 16:38:03;;;;;;;5.70;1.80;;;16.00;100.00;;;;;;5456723;26;20440;-76
2024/04/16 16:40:30;;;;;;;7.05;1.98;;;16.00;100.00;;;;;;5456035;26;19998;-75
2024/04/16 16:42:57;;;;;;;5.75;2.60;;;16.30;100.00;;;;;;5455706;26;20003;-74
2024/04/16 16:45:24;;;;;;;15.18;4.07;;;16.20;100.00;;;;;;5456611;26;19999;-75
2024/04/16 16:47:55;;;;;;;12.07;4.07;;;15.10;100.00;;;;;;5456436;26;20845;-74
2024/04/16 16:50:23;;;;;;;7.78;1.80;;;15.60;100.00;;;;;;5455328;26;20651;-74
2024/04/16 16:52:50;;;;;;;4.45;1.58;;;15.60;100.00;;;;;;5455559;26;19999;-73
2024/04/16 16:55:17;;;;;;;5.55;1.55;;;14.90;100.00;;;;;;5455357;26;20010;-73
2024/04/16 16:57:44;;;;;;;6.35;1.95;;;14.60;100.00;;;;;;5455682;26;20009;-75
2024/04/16 17:00:11;;;;;;;6.60;1.80;;;14.40;100.00;;;;;;5453816;26;20080;-73
2024/04/16 17:02:38;;;;;;;4.50;1.73;;;14.40;100.00;;;;;;5409368;26;20003;-73
2024/04/16 17:05:05;;;;;;;4.50;1.42;;;13.50;100.00;;;;;;5438979;26;20013;-72
2024/04/16 17:07:32;;;;;;;4.38;1.25;;;12.80;100.00;;;;;;5440025;26;20010;-73
2024/04/16 17:09:59;;;;;;;3.50;1.90;;;12.00;100.00;;;;;;5438879;26;20474;-72
2024/04/16 17:12:26;;;;;;;7.90;1.73;;;11.30;100.00;;;;;;5435740;26;20182;-74
2024/04/16 17:14:53;;;;;;;4.68;1.67;;;10.70;100.00;;;;;;5439078;26;20010;-74
2024/04/16 17:17:20;;;;;;;3.45;1.55;;;10.30;100.00;;;;;;5452666;26;20003;-74
2024/04/16 17:19:47;;;;;;;8.57;2.00;;;9.80;100.00;;;;;;5439385;26;20014;-75
2024/04/16 17:22:14;;;;;;;7.05;2.05;;;9.50;100.00;;;;;;5439326;26;20003;-73
2024/04/16 17:24:41;;;;;;;10.75;2.47;;;9.10;100.00;;;;;;5438430;26;20009;-73
2024/04/16 17:27:11;;;;;;;7.20;2.40;;;8.80;100.00;;;;;;5437709;26;20068;-73
2024/04/16 17:29:38;;;;;;;6.78;2.40;;;8.60;100.00;;;;;;5438690;26;20075;-74
2024/04/16 17:32:05;;;;;;;12.88;2.60;;;8.40;100.00;;;;;;5439037;26;20315;-74
2024/04/16 17:34:32;;;;;;;9.73;2.92;;;8.20;100.00;;;;;;5407537;26;20003;-74
2024/04/16 17:36:59;;;;;;;12.35;3.47;;;8.10;100.00;;;;;;5438458;26;20010;-74
2024/04/16 17:39:27;;;;;;;16.17;4.32;;;7.80;100.00;;;;;;5439843;26;19999;-73
2024/04/16 17:41:53;;;;;;;175.43;20.23;;;7.70;100.00;;;;;;5403563;26;20010;-75
2024/04/16 17:44:20;;;;;;;261.60;33.65;;;7.50;100.00;;;;;;5438360;26;19995;-74
2024/04/16 17:46:49;;;;;;;230.75;27.05;;;7.40;100.00;;;;;;5438799;26;20003;-75
2024/04/16 17:49:16;;;;;;;16.33;6.93;;;7.30;100.00;;;;;;5429250;26;20010;-74
2024/04/16 17:51:43;;;;;;;11.18;3.78;;;7.10;100.00;;;;;;5438799;26;20003;-74
2024/04/16 17:54:10;;;;;;;11.82;4.70;;;7.10;100.00;;;;;;5427807;26;20501;-74
2024/04/16 17:56:38;;;;;;;11.43;4.55;;;7.00;100.00;;;;;;5435606;26;20525;-74
2024/04/16 17:59:04;;;;;;;17.73;5.20;;;6.90;100.00;;;;;;5441865;26;20014;-74
2024/04/16 18:01:31;;;;;;;10.65;5.15;;;6.90;100.00;;;;;;5439090;26;20003;-74
2024/04/16 18:04:01;;;;;;;14.57;5.25;;;6.80;100.00;;;;;;5429603;26;20445;-72
2024/04/16 18:06:28;;;;;;;9.50;5.40;;;6.70;100.00;;;;;;5436471;26;20011;-71
2024/04/16 18:08:55;;;;;;;12.13;4.57;;;6.70;100.00;;;;;;5438342;26;20006;-72